sensor_id;sensor_type;location;lat;lon;timestamp;pressure;altitude;pressure_sealevel;temperature;humidity
33554;BME280;19885;42.208;24.952;2023-08-06T00:00:38;98425.47;;;26.20;91.15
33554;BME280;19885;42.208;24.952;2023-08-06T00:03:04;98440.28;;;26.24;90.68
33554;BME280;19885;42.208;24.952;2023-08-06T00:05:29;98452.88;;;26.44;89.27
33554;BME280;19885;42.208;24.952;2023-08-06T00:07:54;98446.97;;;26.30;89.74
33554;BME280;19885;42.208;24.952;2023-08-06T00:10:20;98458.13;;;26.46;89.13
33554;BME280;19885;42.208;24.952;2023-08-06T00:12:45;98452.50;;;26.49;88.57
33554;BME280;19885;42.208;24.952;2023-08-06T00:15:10;98457.09;;;26.58;88.21
33554;BME280;19885;42.208;24.952;2023-08-06T00:17:36;98449.38;;;26.44;88.96
33554;BME280;19885;42.208;24.952;2023-08-06T00:20:02;98443.03;;;26.45;89.59
33554;BME280;19885;42.208;24.952;2023-08-06T00:22:34;98445.81;;;26.54;88.65
33554;BME280;19885;42.208;24.952;2023-08-06T00:25:00;98443.16;;;26.54;88.80
33554;BME280;19885;42.208;24.952;2023-08-06T00:27:25;98444.84;;;26.66;88.68
33554;BME280;19885;42.208;24.952;2023-08-06T00:29:51;98444.97;;;26.54;89.20
33554;BME280;19885;42.208;24.952;2023-08-06T00:32:17;98435.13;;;26.54;89.44
33554;BME280;19885;42.208;24.952;2023-08-06T00:34:42;98431.41;;;26.46;89.81
33554;BME280;19885;42.208;24.952;2023-08-06T00:37:07;98425.88;;;26.58;89.41
33554;BME280;19885;42.208;24.952;2023-08-06T00:39:34;98426.28;;;26.43;90.12
33554;BME280;19885;42.208;24.952;2023-08-06T00:42:00;98419.00;;;26.34;91.44
33554;BME280;19885;42.208;24.952;2023-08-06T00:44:25;98411.00;;;26.34;91.31
33554;BME280;19885;42.208;24.952;2023-08-06T00:46:50;98406.75;;;26.20;92.10
33554;BME280;19885;42.208;24.952;2023-08-06T00:49:16;98402.88;;;26.13;93.00
33554;BME280;19885;42.208;24.952;2023-08-06T00:51:41;98403.16;;;26.10;93.12
33554;BME280;19885;42.208;24.952;2023-08-06T00:54:07;98399.69;;;25.86;94.56
33554;BME280;19885;42.208;24.952;2023-08-06T00:56:33;98405.28;;;26.05;94.40
33554;BME280;19885;42.208;24.952;2023-08-06T00:59:00;98400.69;;;25.96;94.27
33554;BME280;19885;42.208;24.952;2023-08-06T01:01:26;98395.72;;;26.02;93.66
33554;BME280;19885;42.208;24.952;2023-08-06T01:03:51;98399.34;;;26.01;93.76
33554;BME280;19885;42.208;24.952;2023-08-06T01:06:17;98395.34;;;25.96;94.23
33554;BME280;19885;42.208;24.952;2023-08-06T01:14:08;98379.81;;;26.23;93.73
33554;BME280;19885;42.208;24.952;2023-08-06T01:16:38;98380.06;;;26.20;93.31
33554;BME280;19885;42.208;24.952;2023-08-06T01:19:05;98373.25;;;26.16;93.54
33554;BME280;19885;42.208;24.952;2023-08-06T01:21:30;98365.00;;;26.19;93.50
33554;BME280;19885;42.208;24.952;2023-08-06T01:23:55;98355.50;;;26.26;93.74
33554;BME280;19885;42.208;24.952;2023-08-06T01:31:30;98396.69;;;26.12;93.27
33554;BME280;19885;42.208;24.952;2023-08-06T01:33:57;98398.75;;;26.20;93.08
33554;BME280;19885;42.208;24.952;2023-08-06T01:36:23;98401.31;;;26.10;93.13
33554;BME280;19885;42.208;24.952;2023-08-06T01:38:48;98401.41;;;26.09;93.59
33554;BME280;19885;42.208;24.952;2023-08-06T01:41:15;98400.69;;;25.96;94.06
33554;BME280;19885;42.208;24.952;2023-08-06T01:43:41;98385.41;;;25.87;94.94
33554;BME280;19885;42.208;24.952;2023-08-06T01:46:06;98387.81;;;25.68;96.40
33554;BME280;19885;42.208;24.952;2023-08-06T01:48:31;98385.47;;;25.52;97.44
33554;BME280;19885;42.208;24.952;2023-08-06T01:50:56;98382.47;;;25.22;99.62
33554;BME280;19885;42.208;24.952;2023-08-06T01:53:22;98369.50;;;25.28;99.94
33554;BME280;19885;42.208;24.952;2023-08-06T01:55:48;98358.78;;;25.06;100.00
33554;BME280;19885;42.208;24.952;2023-08-06T01:58:13;98362.91;;;25.10;100.00
33554;BME280;19885;42.208;24.952;2023-08-06T02:00:38;98372.38;;;25.03;100.00
33554;BME280;19885;42.208;24.952;2023-08-06T02:03:04;98383.75;;;24.94;100.00
33554;BME280;19885;42.208;24.952;2023-08-06T02:05:29;98377.47;;;25.06;100.00
33554;BME280;19885;42.208;24.952;2023-08-06T02:07:54;98373.91;;;24.95;100.00
33554;BME280;19885;42.208;24.952;2023-08-06T02:10:19;98374.06;;;25.04;100.00
33554;BME280;19885;42.208;24.952;2023-08-06T02:12:45;98371.06;;;25.09;100.00
33554;BME280;19885;42.208;24.952;2023-08-06T02:15:10;98378.16;;;24.97;100.00
33554;BME280;19885;42.208;24.952;2023-08-06T02:17:35;98372.06;;;25.19;100.00
33554;BME280;19885;42.208;24.952;2023-08-06T02:20:00;98371.44;;;25.15;100.00
33554;BME280;19885;42.208;24.952;2023-08-06T02:22:26;98385.66;;;25.27;100.00
33554;BME280;19885;42.208;24.952;2023-08-06T02:24:51;98388.19;;;25.28;100.00
33554;BME280;19885;42.208;24.952;2023-08-06T02:27:17;98392.81;;;25.37;100.00
33554;BME280;19885;42.208;24.952;2023-08-06T02:29:42;98387.25;;;25.40;100.00
33554;BME280;19885;42.208;24.952;2023-08-06T02:32:07;98388.97;;;25.41;100.00
33554;BME280;19885;42.208;24.952;2023-08-06T02:34:33;98387.19;;;25.53;99.98
33554;BME280;19885;42.208;24.952;2023-08-06T02:36:58;98390.09;;;25.50;100.00
33554;BME280;19885;42.208;24.952;2023-08-06T02:39:23;98383.19;;;25.59;99.84
33554;BME280;19885;42.208;24.952;2023-08-06T02:41:48;98383.84;;;25.38;100.00
33554;BME280;19885;42.208;24.952;2023-08-06T02:44:14;98381.66;;;25.21;100.00
33554;BME280;19885;42.208;24.952;2023-08-06T02:46:39;98387.44;;;25.26;100.00
33554;BME280;19885;42.208;24.952;2023-08-06T02:49:04;98382.56;;;25.09;100.00
33554;BME280;19885;42.208;24.952;2023-08-06T02:51:29;98387.44;;;25.26;100.00
33554;BME280;19885;42.208;24.952;2023-08-06T02:53:55;98388.97;;;25.07;100.00
33554;BME280;19885;42.208;24.952;2023-08-06T02:56:20;98383.06;;;25.14;100.00
33554;BME280;19885;42.208;24.952;2023-08-06T02:58:46;98384.84;;;25.03;100.00
33554;BME280;19885;42.208;24.952;2023-08-06T03:01:11;98380.41;;;25.14;100.00
33554;BME280;19885;42.208;24.952;2023-08-06T03:03:36;98387.22;;;25.29;100.00
33554;BME280;19885;42.208;24.952;2023-08-06T03:06:02;98376.81;;;25.37;100.00
33554;BME280;19885;42.208;24.952;2023-08-06T03:08:28;98359.75;;;25.51;100.00
33554;BME280;19885;42.208;24.952;2023-08-06T03:10:53;98373.28;;;25.26;100.00
33554;BME280;19885;42.208;24.952;2023-08-06T03:13:19;98361.94;;;25.00;100.00
33554;BME280;19885;42.208;24.952;2023-08-06T03:18:19;98362.50;;;25.38;100.00
33554;BME280;19885;42.208;24.952;2023-08-06T03:20:44;98364.09;;;25.41;100.00
33554;BME280;19885;42.208;24.952;2023-08-06T03:23:10;98374.25;;;25.36;100.00
33554;BME280;19885;42.208;24.952;2023-08-06T03:25:35;98378.44;;;25.51;100.00
33554;BME280;19885;42.208;24.952;2023-08-06T03:28:01;98377.84;;;25.47;99.90
33554;BME280;19885;42.208;24.952;2023-08-06T03:30:27;98379.38;;;25.39;100.00
33554;BME280;19885;42.208;24.952;2023-08-06T03:32:52;98377.25;;;25.44;100.00
33554;BME280;19885;42.208;24.952;2023-08-06T03:35:17;98374.44;;;25.45;100.00
33554;BME280;19885;42.208;24.952;2023-08-06T03:37:43;98383.84;;;25.38;100.00
33554;BME280;19885;42.208;24.952;2023-08-06T03:40:08;98381.59;;;25.56;100.00
33554;BME280;19885;42.208;24.952;2023-08-06T03:42:34;98380.28;;;25.73;99.92
33554;BME280;19885;42.208;24.952;2023-08-06T03:45:00;98382.72;;;25.76;98.83
33554;BME280;19885;42.208;24.952;2023-08-06T03:47:26;98386.22;;;25.76;99.10
33554;BME280;19885;42.208;24.952;2023-08-06T03:49:51;98397.53;;;25.69;99.33
33554;BME280;19885;42.208;24.952;2023-08-06T03:52:19;98406.47;;;25.68;99.19
33554;BME280;19885;42.208;24.952;2023-08-06T03:54:45;98408.69;;;25.85;98.65
33554;BME280;19885;42.208;24.952;2023-08-06T03:57:10;98405.16;;;25.95;98.23
33554;BME280;19885;42.208;24.952;2023-08-06T03:59:36;98397.53;;;26.13;97.49
33554;BME280;19885;42.208;24.952;2023-08-06T04:02:01;98387.72;;;26.13;97.76
33554;BME280;19885;42.208;24.952;2023-08-06T04:04:27;98376.88;;;26.26;97.21
33554;BME280;19885;42.208;24.952;2023-08-06T04:06:52;98371.81;;;26.23;96.11
33554;BME280;19885;42.208;24.952;2023-08-06T04:09:17;98378.13;;;26.11;96.67
33554;BME280;19885;42.208;24.952;2023-08-06T04:11:43;98381.28;;;26.16;96.55
33554;BME280;19885;42.208;24.952;2023-08-06T04:14:08;98382.97;;;26.17;96.66
33554;BME280;19885;42.208;24.952;2023-08-06T04:16:33;98386.13;;;26.22;96.42
33554;BME280;19885;42.208;24.952;2023-08-06T04:18:59;98390.25;;;26.15;96.40
33554;BME280;19885;42.208;24.952;2023-08-06T04:21:24;98376.16;;;25.91;97.44
33554;BME280;19885;42.208;24.952;2023-08-06T04:23:49;98373.34;;;26.03;97.29
33554;BME280;19885;42.208;24.952;2023-08-06T04:26:15;98377.97;;;26.01;97.21
33554;BME280;19885;42.208;24.952;2023-08-06T04:28:40;98383.69;;;25.97;97.85
33554;BME280;19885;42.208;24.952;2023-08-06T04:31:05;98382.22;;;26.04;97.22
33554;BME280;19885;42.208;24.952;2023-08-06T04:33:31;98381.78;;;26.10;97.96
33554;BME280;19885;42.208;24.952;2023-08-06T04:35:56;98378.47;;;26.17;96.85
33554;BME280;19885;42.208;24.952;2023-08-06T04:38:23;98371.44;;;26.28;97.39
33554;BME280;19885;42.208;24.952;2023-08-06T04:40:48;98378.47;;;25.95;97.06
33554;BME280;19885;42.208;24.952;2023-08-06T04:43:14;98385.63;;;25.95;97.73
33554;BME280;19885;42.208;24.952;2023-08-06T04:45:45;98382.59;;;25.99;97.89
33554;BME280;19885;42.208;24.952;2023-08-06T04:48:10;98379.06;;;25.88;98.21
33554;BME280;19885;42.208;24.952;2023-08-06T04:50:35;98387.94;;;25.99;98.34
33554;BME280;19885;42.208;24.952;2023-08-06T04:53:01;98404.28;;;25.51;100.00
33554;BME280;19885;42.208;24.952;2023-08-06T04:55:26;98407.13;;;25.71;99.62
33554;BME280;19885;42.208;24.952;2023-08-06T04:57:51;98399.31;;;25.57;100.00
33554;BME280;19885;42.208;24.952;2023-08-06T05:00:17;98390.47;;;25.57;100.00
33554;BME280;19885;42.208;24.952;2023-08-06T05:02:42;98394.34;;;25.64;100.00
33554;BME280;19885;42.208;24.952;2023-08-06T06:34:50;98436.69;;;24.39;100.00
33554;BME280;19885;42.208;24.952;2023-08-06T06:37:15;98416.03;;;24.66;100.00
33554;BME280;19885;42.208;24.952;2023-08-06T06:39:40;98404.81;;;24.97;100.00
33554;BME280;19885;42.208;24.952;2023-08-06T06:42:06;98387.84;;;24.87;100.00
33554;BME280;19885;42.208;24.952;2023-08-06T06:44:31;98339.91;;;25.09;100.00
33554;BME280;19885;42.208;24.952;2023-08-06T06:46:56;98307.16;;;24.96;100.00
33554;BME280;19885;42.208;24.952;2023-08-06T06:49:22;98325.84;;;25.07;100.00
33554;BME280;19885;42.208;24.952;2023-08-06T06:51:47;98339.44;;;25.15;100.00
33554;BME280;19885;42.208;24.952;2023-08-06T06:54:12;98315.94;;;25.20;100.00
33554;BME280;19885;42.208;24.952;2023-08-06T06:56:37;98309.50;;;25.34;100.00
33554;BME280;19885;42.208;24.952;2023-08-06T06:59:03;98295.25;;;25.46;100.00
33554;BME280;19885;42.208;24.952;2023-08-06T07:01:28;98300.28;;;25.27;100.00
33554;BME280;19885;42.208;24.952;2023-08-06T07:03:53;98362.00;;;25.33;100.00
33554;BME280;19885;42.208;24.952;2023-08-06T07:06:19;98403.47;;;25.37;100.00
33554;BME280;19885;42.208;24.952;2023-08-06T07:08:44;98424.31;;;25.21;100.00
33554;BME280;19885;42.208;24.952;2023-08-06T07:11:10;98420.25;;;25.39;100.00
33554;BME280;19885;42.208;24.952;2023-08-06T07:13:35;98413.81;;;25.42;100.00
33554;BME280;19885;42.208;24.952;2023-08-06T07:16:00;98415.63;;;25.41;100.00
33554;BME280;19885;42.208;24.952;2023-08-06T07:18:26;98420.97;;;25.41;100.00
33554;BME280;19885;42.208;24.952;2023-08-06T07:20:52;98431.44;;;25.44;100.00
33554;BME280;19885;42.208;24.952;2023-08-06T07:23:19;98447.66;;;25.41;100.00
33554;BME280;19885;42.208;24.952;2023-08-06T07:25:45;98427.06;;;25.43;100.00
33554;BME280;19885;42.208;24.952;2023-08-06T07:28:11;98427.56;;;25.48;100.00
33554;BME280;19885;42.208;24.952;2023-08-06T07:30:40;98424.28;;;25.56;100.00
33554;BME280;19885;42.208;24.952;2023-08-06T07:33:05;98429.03;;;25.53;100.00
33554;BME280;19885;42.208;24.952;2023-08-06T07:35:31;98421.91;;;25.64;100.00
33554;BME280;19885;42.208;24.952;2023-08-06T07:37:57;98416.66;;;25.63;100.00
33554;BME280;19885;42.208;24.952;2023-08-06T07:40:22;98422.72;;;25.65;100.00
33554;BME280;19885;42.208;24.952;2023-08-06T07:42:47;98414.63;;;25.66;100.00
33554;BME280;19885;42.208;24.952;2023-08-06T07:45:13;98423.50;;;25.78;100.00
33554;BME280;19885;42.208;24.952;2023-08-06T07:47:39;98414.03;;;25.85;100.00
33554;BME280;19885;42.208;24.952;2023-08-06T07:50:04;98423.88;;;25.84;100.00
33554;BME280;19885;42.208;24.952;2023-08-06T07:52:30;98424.44;;;25.55;100.00
33554;BME280;19885;42.208;24.952;2023-08-06T07:54:55;98427.59;;;25.71;100.00
33554;BME280;19885;42.208;24.952;2023-08-06T07:57:20;98428.13;;;25.87;100.00
33554;BME280;19885;42.208;24.952;2023-08-06T07:59:46;98407.59;;;25.98;100.00
33554;BME280;19885;42.208;24.952;2023-08-06T08:02:11;98404.22;;;25.96;100.00
33554;BME280;19885;42.208;24.952;2023-08-06T08:04:36;98407.38;;;26.12;100.00
33554;BME280;19885;42.208;24.952;2023-08-06T08:07:02;98404.94;;;26.21;100.00
33554;BME280;19885;42.208;24.952;2023-08-06T08:09:27;98421.69;;;26.34;100.00
33554;BME280;19885;42.208;24.952;2023-08-06T08:11:53;98431.03;;;26.17;100.00
33554;BME280;19885;42.208;24.952;2023-08-06T08:14:18;98423.88;;;26.06;100.00
33554;BME280;19885;42.208;24.952;2023-08-06T08:16:43;98437.28;;;25.61;100.00
33554;BME280;19885;42.208;24.952;2023-08-06T08:19:09;98437.19;;;25.62;100.00
33554;BME280;19885;42.208;24.952;2023-08-06T08:21:34;98440.13;;;25.92;100.00
33554;BME280;19885;42.208;24.952;2023-08-06T08:23:59;98424.38;;;26.23;100.00
33554;BME280;19885;42.208;24.952;2023-08-06T08:26:25;98415.03;;;26.28;100.00
33554;BME280;19885;42.208;24.952;2023-08-06T08:28:52;98416.22;;;26.35;100.00
33554;BME280;19885;42.208;24.952;2023-08-06T08:31:18;98422.31;;;26.37;100.00
33554;BME280;19885;42.208;24.952;2023-08-06T08:33:43;98418.91;;;26.24;100.00
33554;BME280;19885;42.208;24.952;2023-08-06T08:36:08;98415.63;;;26.21;100.00
33554;BME280;19885;42.208;24.952;2023-08-06T08:38:35;98419.63;;;26.26;100.00
33554;BME280;19885;42.208;24.952;2023-08-06T08:41:00;98415.41;;;26.24;100.00
33554;BME280;19885;42.208;24.952;2023-08-06T08:43:25;98404.47;;;26.15;98.47
33554;BME280;19885;42.208;24.952;2023-08-06T08:45:52;98407.75;;;26.19;100.00
33554;BME280;19885;42.208;24.952;2023-08-06T08:48:20;98406.53;;;26.12;100.00
33554;BME280;19885;42.208;24.952;2023-08-06T08:50:47;98411.09;;;25.88;100.00
33554;BME280;19885;42.208;24.952;2023-08-06T08:53:14;98425.44;;;25.98;99.96
33554;BME280;19885;42.208;24.952;2023-08-06T08:55:40;98435.84;;;25.79;99.58
33554;BME280;19885;42.208;24.952;2023-08-06T08:58:06;98422.13;;;25.72;100.00
33554;BME280;19885;42.208;24.952;2023-08-06T09:00:32;98419.59;;;25.82;100.00
33554;BME280;19885;42.208;24.952;2023-08-06T09:02:57;98420.69;;;25.79;100.00
33554;BME280;19885;42.208;24.952;2023-08-06T09:05:23;98420.47;;;25.82;100.00
33554;BME280;19885;42.208;24.952;2023-08-06T09:07:52;98417.16;;;25.57;100.00
33554;BME280;19885;42.208;24.952;2023-08-06T09:10:17;98401.13;;;25.57;100.00
33554;BME280;19885;42.208;24.952;2023-08-06T09:12:44;98405.75;;;25.66;100.00
33554;BME280;19885;42.208;24.952;2023-08-06T09:15:10;98410.97;;;25.67;100.00
33554;BME280;19885;42.208;24.952;2023-08-06T09:17:36;98407.84;;;25.73;100.00
33554;BME280;19885;42.208;24.952;2023-08-06T09:20:08;98414.13;;;25.72;100.00
33554;BME280;19885;42.208;24.952;2023-08-06T09:22:34;98409.88;;;25.59;100.00
33554;BME280;19885;42.208;24.952;2023-08-06T09:25:00;98414.97;;;25.62;100.00
33554;BME280;19885;42.208;24.952;2023-08-06T09:27:25;98419.69;;;25.69;100.00
33554;BME280;19885;42.208;24.952;2023-08-06T09:29:51;98420.34;;;25.73;100.00
33554;BME280;19885;42.208;24.952;2023-08-06T09:32:16;98422.00;;;25.74;100.00
33554;BME280;19885;42.208;24.952;2023-08-06T09:34:42;98418.16;;;26.00;100.00
33554;BME280;19885;42.208;24.952;2023-08-06T09:37:11;98413.19;;;26.06;100.00
33554;BME280;19885;42.208;24.952;2023-08-06T09:39:37;98404.22;;;26.18;100.00
33554;BME280;19885;42.208;24.952;2023-08-06T09:42:03;98403.97;;;26.33;100.00
33554;BME280;19885;42.208;24.952;2023-08-06T09:44:30;98407.59;;;26.32;100.00
33554;BME280;19885;42.208;24.952;2023-08-06T09:46:57;98399.66;;;26.52;95.09
33554;BME280;19885;42.208;24.952;2023-08-06T09:49:26;98397.47;;;26.57;95.63
33554;BME280;19885;42.208;24.952;2023-08-06T09:51:54;98394.00;;;26.88;94.50
33554;BME280;19885;42.208;24.952;2023-08-06T09:54:24;98392.06;;;27.11;90.79
33554;BME280;19885;42.208;24.952;2023-08-06T09:56:51;98400.25;;;27.30;86.57
33554;BME280;19885;42.208;24.952;2023-08-06T09:59:17;98390.44;;;27.20;92.42
33554;BME280;19885;42.208;24.952;2023-08-06T10:01:43;98387.81;;;27.09;87.54
33554;BME280;19885;42.208;24.952;2023-08-06T10:04:08;98389.53;;;27.10;84.46
33554;BME280;19885;42.208;24.952;2023-08-06T10:06:37;98378.56;;;27.13;85.81
33554;BME280;19885;42.208;24.952;2023-08-06T10:09:03;98366.88;;;27.34;85.49
33554;BME280;19885;42.208;24.952;2023-08-06T10:11:28;98364.06;;;26.95;85.54
33554;BME280;19885;42.208;24.952;2023-08-06T10:13:55;98366.63;;;27.17;84.77
33554;BME280;19885;42.208;24.952;2023-08-06T10:16:22;98359.25;;;27.30;84.18
33554;BME280;19885;42.208;24.952;2023-08-06T10:18:48;98355.56;;;27.31;86.36
33554;BME280;19885;42.208;24.952;2023-08-06T10:21:14;98347.84;;;27.28;82.46
33554;BME280;19885;42.208;24.952;2023-08-06T10:23:41;98338.25;;;27.46;81.84
33554;BME280;19885;42.208;24.952;2023-08-06T10:26:06;98334.09;;;27.63;80.05
33554;BME280;19885;42.208;24.952;2023-08-06T10:28:36;98324.69;;;27.98;76.54
33554;BME280;19885;42.208;24.952;2023-08-06T10:31:01;98323.63;;;28.20;78.01
33554;BME280;19885;42.208;24.952;2023-08-06T10:33:39;98322.75;;;28.19;79.50
33554;BME280;19885;42.208;24.952;2023-08-06T10:36:04;98332.44;;;28.51;75.85
33554;BME280;19885;42.208;24.952;2023-08-06T10:38:34;98338.19;;;28.37;78.12
33554;BME280;19885;42.208;24.952;2023-08-06T10:41:02;98337.44;;;28.15;74.90
33554;BME280;19885;42.208;24.952;2023-08-06T10:43:29;98337.88;;;28.40;76.06
33554;BME280;19885;42.208;24.952;2023-08-06T10:45:54;98339.03;;;28.37;72.53
33554;BME280;19885;42.208;24.952;2023-08-06T10:48:36;98332.44;;;28.60;73.56
33554;BME280;19885;42.208;24.952;2023-08-06T10:51:02;98332.03;;;28.84;76.88
33554;BME280;19885;42.208;24.952;2023-08-06T10:53:28;98338.97;;;28.96;67.92
33554;BME280;19885;42.208;24.952;2023-08-06T10:55:53;98337.84;;;28.99;69.12
33554;BME280;19885;42.208;24.952;2023-08-06T10:58:19;98336.69;;;29.20;71.25
33554;BME280;19885;42.208;24.952;2023-08-06T11:00:44;98338.06;;;29.43;68.02
33554;BME280;19885;42.208;24.952;2023-08-06T11:03:10;98350.78;;;29.41;68.57
33554;BME280;19885;42.208;24.952;2023-08-06T11:05:35;98354.09;;;29.62;66.79
33554;BME280;19885;42.208;24.952;2023-08-06T11:08:01;98355.22;;;29.70;64.96
33554;BME280;19885;42.208;24.952;2023-08-06T11:10:26;98354.66;;;29.66;65.30
33554;BME280;19885;42.208;24.952;2023-08-06T11:12:51;98361.03;;;29.55;65.83
33554;BME280;19885;42.208;24.952;2023-08-06T11:15:17;98357.38;;;29.76;61.51
33554;BME280;19885;42.208;24.952;2023-08-06T11:17:42;98356.59;;;29.74;62.68
33554;BME280;19885;42.208;24.952;2023-08-06T11:20:08;98347.00;;;29.81;61.55
33554;BME280;19885;42.208;24.952;2023-08-06T11:22:33;98352.00;;;30.03;59.85
33554;BME280;19885;42.208;24.952;2023-08-06T11:25:00;98348.97;;;29.88;57.91
33554;BME280;19885;42.208;24.952;2023-08-06T11:27:26;98346.75;;;30.01;62.41
33554;BME280;19885;42.208;24.952;2023-08-06T11:29:52;98348.56;;;30.38;59.22
33554;BME280;19885;42.208;24.952;2023-08-06T11:32:17;98357.50;;;30.38;62.17
33554;BME280;19885;42.208;24.952;2023-08-06T11:34:43;98356.50;;;30.39;59.70
33554;BME280;19885;42.208;24.952;2023-08-06T11:37:08;98356.28;;;30.50;60.58
33554;BME280;19885;42.208;24.952;2023-08-06T11:39:35;98360.06;;;30.57;56.57
33554;BME280;19885;42.208;24.952;2023-08-06T11:42:05;98353.38;;;30.61;57.13
33554;BME280;19885;42.208;24.952;2023-08-06T11:44:31;98354.75;;;30.65;62.34
33554;BME280;19885;42.208;24.952;2023-08-06T11:47:00;98342.34;;;30.99;56.63
33554;BME280;19885;42.208;24.952;2023-08-06T11:52:19;98354.03;;;30.90;53.27
33554;BME280;19885;42.208;24.952;2023-08-06T11:55:07;98355.63;;;30.83;51.26
33554;BME280;19885;42.208;24.952;2023-08-06T11:57:38;98351.78;;;30.86;57.11
33554;BME280;19885;42.208;24.952;2023-08-06T12:00:08;98350.09;;;31.02;51.05
33554;BME280;19885;42.208;24.952;2023-08-06T12:02:34;98355.28;;;31.39;49.61
33554;BME280;19885;42.208;24.952;2023-08-06T12:05:03;98354.84;;;31.44;47.89
33554;BME280;19885;42.208;24.952;2023-08-06T12:07:30;98358.03;;;31.04;51.81
33554;BME280;19885;42.208;24.952;2023-08-06T12:09:56;98349.72;;;30.97;46.95
33554;BME280;19885;42.208;24.952;2023-08-06T12:12:21;98349.38;;;30.83;45.96
33554;BME280;19885;42.208;24.952;2023-08-06T12:14:47;98354.25;;;30.97;48.03
33554;BME280;19885;42.208;24.952;2023-08-06T12:17:12;98350.16;;;31.11;50.53
33554;BME280;19885;42.208;24.952;2023-08-06T12:19:37;98353.72;;;31.11;46.90
33554;BME280;19885;42.208;24.952;2023-08-06T12:22:02;98358.31;;;31.19;45.98
33554;BME280;19885;42.208;24.952;2023-08-06T12:24:28;98360.66;;;30.96;49.25
33554;BME280;19885;42.208;24.952;2023-08-06T12:26:57;98355.84;;;30.72;46.88
33554;BME280;19885;42.208;24.952;2023-08-06T12:29:22;98347.41;;;31.02;49.29
33554;BME280;19885;42.208;24.952;2023-08-06T12:31:48;98353.47;;;30.87;48.00
33554;BME280;19885;42.208;24.952;2023-08-06T12:34:13;98351.50;;;30.89;50.65
33554;BME280;19885;42.208;24.952;2023-08-06T12:36:39;98351.72;;;30.95;47.45
33554;BME280;19885;42.208;24.952;2023-08-06T12:39:04;98342.63;;;31.14;47.34
33554;BME280;19885;42.208;24.952;2023-08-06T12:41:29;98344.72;;;31.02;46.43
33554;BME280;19885;42.208;24.952;2023-08-06T12:43:55;98335.38;;;31.15;44.50
33554;BME280;19885;42.208;24.952;2023-08-06T12:46:20;98345.81;;;31.10;44.65
33554;BME280;19885;42.208;24.952;2023-08-06T12:48:45;98344.47;;;31.14;43.68
33554;BME280;19885;42.208;24.952;2023-08-06T12:51:10;98346.41;;;31.03;39.02
33554;BME280;19885;42.208;24.952;2023-08-06T12:53:36;98358.31;;;30.83;40.88
33554;BME280;19885;42.208;24.952;2023-08-06T12:56:01;98346.69;;;30.83;42.91
33554;BME280;19885;42.208;24.952;2023-08-06T12:58:27;98352.03;;;30.92;40.98
33554;BME280;19885;42.208;24.952;2023-08-06T13:00:52;98341.34;;;31.00;38.75
33554;BME280;19885;42.208;24.952;2023-08-06T13:03:17;98346.22;;;31.23;43.73
33554;BME280;19885;42.208;24.952;2023-08-06T13:05:43;98341.19;;;31.02;40.94
33554;BME280;19885;42.208;24.952;2023-08-06T13:08:09;98346.63;;;30.92;41.73
33554;BME280;19885;42.208;24.952;2023-08-06T13:10:34;98349.16;;;30.76;42.99
33554;BME280;19885;42.208;24.952;2023-08-06T13:13:00;98351.16;;;30.57;41.43
33554;BME280;19885;42.208;24.952;2023-08-06T13:15:26;98350.44;;;30.37;39.76
33554;BME280;19885;42.208;24.952;2023-08-06T13:17:51;98352.91;;;30.48;45.18
33554;BME280;19885;42.208;24.952;2023-08-06T13:20:16;98357.09;;;30.78;44.00
33554;BME280;19885;42.208;24.952;2023-08-06T13:22:44;98352.91;;;30.66;43.70
33554;BME280;19885;42.208;24.952;2023-08-06T13:25:11;98351.09;;;31.01;43.33
33554;BME280;19885;42.208;24.952;2023-08-06T13:27:36;98356.09;;;31.14;42.54
33554;BME280;19885;42.208;24.952;2023-08-06T13:30:02;98346.56;;;31.02;41.20
33554;BME280;19885;42.208;24.952;2023-08-06T13:32:28;98344.38;;;31.23;42.73
33554;BME280;19885;42.208;24.952;2023-08-06T13:34:53;98342.78;;;31.56;42.74
33554;BME280;19885;42.208;24.952;2023-08-06T13:37:18;98337.09;;;31.59;41.88
33554;BME280;19885;42.208;24.952;2023-08-06T13:39:44;98346.59;;;31.71;43.88
33554;BME280;19885;42.208;24.952;2023-08-06T13:42:09;98340.09;;;31.90;40.82
33554;BME280;19885;42.208;24.952;2023-08-06T13:44:34;98338.16;;;32.42;40.59
33554;BME280;19885;42.208;24.952;2023-08-06T13:47:01;98344.69;;;32.23;40.65
33554;BME280;19885;42.208;24.952;2023-08-06T13:49:26;98343.56;;;32.00;37.60
33554;BME280;19885;42.208;24.952;2023-08-06T13:51:51;98351.16;;;32.04;39.11
33554;BME280;19885;42.208;24.952;2023-08-06T13:54:16;98353.56;;;31.56;40.60
33554;BME280;19885;42.208;24.952;2023-08-06T13:56:42;98345.34;;;31.14;39.17
33554;BME280;19885;42.208;24.952;2023-08-06T13:59:07;98345.88;;;31.00;40.77
33554;BME280;19885;42.208;24.952;2023-08-06T14:01:33;98336.13;;;31.42;38.17
33554;BME280;19885;42.208;24.952;2023-08-06T14:03:58;98341.69;;;31.66;38.19
33554;BME280;19885;42.208;24.952;2023-08-06T14:06:24;98335.44;;;31.66;38.26
33554;BME280;19885;42.208;24.952;2023-08-06T14:08:49;98344.94;;;31.78;37.86
33554;BME280;19885;42.208;24.952;2023-08-06T14:11:14;98349.22;;;31.63;36.82
33554;BME280;19885;42.208;24.952;2023-08-06T14:13:40;98348.84;;;31.15;37.38
33554;BME280;19885;42.208;24.952;2023-08-06T14:16:05;98364.31;;;31.13;39.51
33554;BME280;19885;42.208;24.952;2023-08-06T14:18:30;98362.09;;;30.90;38.97
33554;BME280;19885;42.208;24.952;2023-08-06T14:20:55;98373.84;;;30.89;39.83
33554;BME280;19885;42.208;24.952;2023-08-06T14:23:21;98374.44;;;30.83;37.54